Time;durP1;ratioP1;P1;durP2;ratioP2;P2;SDS_P1;SDS_P2;PMS_P1;PMS_P2;Temp;Humidity;BMP_temperature;BMP_pressure;BME280_temperature;BME280_humidity;BME280_pressure;Samples;Min_cycle;Max_cycle;Signal;HPM_P1;HPM_P2
2022/08/27 00:00:13;;;;;;;6.03;2.10;;;17.10;99.90;;;;;;4934509;29;20150;-62
2022/08/27 00:02:39;;;;;;;7.72;2.22;;;17.20;99.90;;;;;;4933942;29;20051;-62
2022/08/27 00:05:05;;;;;;;5.80;2.30;;;17.20;99.90;;;;;;4934223;29;20059;-62
2022/08/27 00:07:31;;;;;;;4.70;2.33;;;17.20;99.90;;;;;;4934123;29;20115;-62
2022/08/27 00:09:57;;;;;;;5.68;2.28;;;17.30;99.90;;;;;;4933692;29;20048;-62
2022/08/27 00:12:23;;;;;;;4.60;1.90;;;17.30;99.90;;;;;;4933988;29;20126;-63
2022/08/27 00:14:48;;;;;;;9.63;2.17;;;17.30;99.90;;;;;;4933360;29;20501;-62
2022/08/27 00:17:14;;;;;;;4.63;1.88;;;17.30;99.90;;;;;;4934253;29;20118;-62
2022/08/27 00:19:41;;;;;;;4.05;1.92;;;17.30;99.90;;;;;;4932635;29;20052;-62
2022/08/27 00:22:08;;;;;;;6.22;2.10;;;17.30;99.90;;;;;;4934203;29;20059;-62
2022/08/27 00:24:35;;;;;;;4.25;2.00;;;17.30;99.90;;;;;;4932512;29;20047;-62
2022/08/27 00:27:01;;;;;;;4.88;1.98;;;17.30;99.90;;;;;;4933994;29;20059;-62
2022/08/27 00:29:27;;;;;;;6.97;2.22;;;17.30;99.90;;;;;;4933835;29;20552;-62
2022/08/27 00:31:52;;;;;;;4.18;1.90;;;17.30;99.90;;;;;;4934048;29;20070;-62
2022/08/27 00:34:19;;;;;;;6.15;2.30;;;17.30;99.90;;;;;;4933636;29;20047;-63
2022/08/27 00:36:44;;;;;;;4.75;1.90;;;17.30;99.90;;;;;;4933476;29;20052;-62
2022/08/27 00:39:11;;;;;;;5.20;2.03;;;17.30;99.90;;;;;;4916609;29;20059;-62
2022/08/27 00:41:39;;;;;;;8.68;2.20;;;17.30;99.90;;;;;;4933325;29;20152;-62
2022/08/27 00:44:05;;;;;;;6.13;1.80;;;17.30;99.90;;;;;;4937455;29;20398;-62
2022/08/27 00:47:06;;;;;;;6.60;2.20;;;17.20;99.90;;;;;;4937396;29;20051;-62
2022/08/27 00:49:46;;;;;;;6.53;2.35;;;17.20;99.90;;;;;;4936189;29;20489;-61
2022/08/27 00:52:25;;;;;;;7.07;2.20;;;17.20;99.90;;;;;;4937847;29;20094;-61
2022/08/27 00:54:55;;;;;;;6.63;2.35;;;17.20;99.90;;;;;;4936168;29;20055;-61
2022/08/27 00:57:21;;;;;;;5.13;2.22;;;17.20;99.90;;;;;;4937775;29;20055;-61
2022/08/27 00:59:47;;;;;;;4.95;2.15;;;17.10;99.90;;;;;;4936425;29;20398;-62
2022/08/27 01:02:19;;;;;;;5.63;2.05;;;17.10;99.90;;;;;;4936237;29;20376;-61
2022/08/27 01:04:50;;;;;;;5.47;2.08;;;17.10;99.90;;;;;;4936204;29;20047;-61
2022/08/27 01:07:17;;;;;;;6.22;1.92;;;17.10;99.90;;;;;;4920458;29;20137;-61
2022/08/27 01:09:46;;;;;;;5.35;1.98;;;17.10;99.90;;;;;;4937043;29;20398;-61
2022/08/27 01:12:11;;;;;;;8.02;2.40;;;17.10;99.90;;;;;;4937503;29;20401;-61
2022/08/27 01:14:38;;;;;;;5.13;2.13;;;17.10;99.90;;;;;;4937098;29;20047;-61
2022/08/27 01:17:06;;;;;;;5.95;2.40;;;17.10;99.90;;;;;;4937469;29;20055;-63
2022/08/27 01:19:49;;;;;;;6.68;2.05;;;17.10;99.90;;;;;;4936757;29;20150;-62
2022/08/27 01:22:40;;;;;;;7.65;2.28;;;17.10;99.90;;;;;;4935936;29;20043;-61
2022/08/27 01:25:12;;;;;;;8.52;1.90;;;17.10;99.90;;;;;;4951949;29;20143;-61
2022/08/27 01:27:39;;;;;;;8.07;2.20;;;17.00;99.90;;;;;;4935385;29;20512;-62
2022/08/27 01:30:06;;;;;;;4.15;1.80;;;17.00;99.90;;;;;;4936130;29;20449;-61
2022/08/27 01:32:33;;;;;;;5.93;1.95;;;17.00;99.90;;;;;;4919720;29;20132;-62
2022/08/27 01:35:03;;;;;;;5.70;2.20;;;17.00;99.90;;;;;;4936997;29;20130;-61
2022/08/27 01:37:29;;;;;;;6.28;2.30;;;16.90;99.90;;;;;;4935655;29;20070;-64
2022/08/27 01:39:57;;;;;;;6.50;2.17;;;16.80;99.90;;;;;;4936784;29;20497;-62
2022/08/27 01:42:45;;;;;;;5.63;1.85;;;16.80;99.90;;;;;;4937061;29;20122;-62
2022/08/27 01:45:26;;;;;;;5.95;2.17;;;16.80;99.90;;;;;;4935983;29;20498;-62
2022/08/27 01:47:52;;;;;;;6.15;2.03;;;16.70;99.90;;;;;;4935753;29;20043;-62
2022/08/27 01:50:25;;;;;;;5.53;2.10;;;16.70;99.90;;;;;;4936742;29;20047;-61
2022/08/27 01:52:52;;;;;;;8.05;2.53;;;16.60;99.90;;;;;;4935029;29;20054;-62
2022/08/27 01:55:21;;;;;;;7.78;2.58;;;16.60;99.90;;;;;;4935227;29;20050;-62
2022/08/27 01:57:46;;;;;;;4.40;1.90;;;16.60;99.90;;;;;;4936187;29;20087;-61
2022/08/27 02:00:19;;;;;;;7.13;2.20;;;16.60;99.90;;;;;;4935238;29;20091;-62
2022/08/27 02:02:46;;;;;;;4.57;1.90;;;16.60;99.90;;;;;;4936379;29;20461;-61
2022/08/27 02:05:11;;;;;;;4.25;2.20;;;16.50;99.90;;;;;;4936217;29;20044;-62
2022/08/27 02:07:38;;;;;;;6.15;2.17;;;16.50;99.90;;;;;;4936083;29;20048;-62
2022/08/27 02:10:06;;;;;;;4.53;1.77;;;16.50;99.90;;;;;;4936186;29;20559;-61
2022/08/27 02:12:32;;;;;;;6.43;2.50;;;16.50;99.90;;;;;;4951258;29;20126;-61
2022/08/27 02:14:58;;;;;;;6.53;2.28;;;16.40;99.90;;;;;;4936131;29;20098;-62
2022/08/27 02:17:24;;;;;;;6.05;2.00;;;16.30;99.90;;;;;;4936292;29;20055;-62
2022/08/27 02:19:49;;;;;;;4.30;1.88;;;16.40;99.90;;;;;;4934604;29;20048;-61
2022/08/27 02:22:15;;;;;;;8.90;2.13;;;16.30;99.90;;;;;;4934781;29;20485;-61
2022/08/27 02:24:41;;;;;;;4.85;2.33;;;16.30;99.90;;;;;;4935065;29;20132;-62
2022/08/27 02:27:08;;;;;;;8.00;2.13;;;16.40;99.90;;;;;;4935666;29;20405;-62
2022/08/27 02:29:33;;;;;;;7.45;2.35;;;16.40;99.90;;;;;;4935297;29;20484;-61
2022/08/27 02:32:00;;;;;;;7.10;2.55;;;16.30;99.90;;;;;;4935640;29;20055;-61
2022/08/27 02:34:26;;;;;;;6.55;2.05;;;16.30;99.90;;;;;;4936129;29;20044;-62
2022/08/27 02:36:52;;;;;;;7.57;2.40;;;16.30;99.90;;;;;;4935500;29;20099;-61
2022/08/27 02:39:18;;;;;;;4.97;2.05;;;16.20;99.90;;;;;;4935523;29;20142;-62
2022/08/27 02:41:44;;;;;;;7.20;2.63;;;16.20;99.90;;;;;;4935365;29;20043;-61
2022/08/27 02:44:10;;;;;;;6.35;2.20;;;16.20;99.90;;;;;;4934923;29;20443;-61
2022/08/27 02:46:37;;;;;;;5.70;2.05;;;16.20;99.90;;;;;;4933830;29;20083;-61
2022/08/27 02:49:03;;;;;;;6.20;2.05;;;16.10;99.90;;;;;;4934424;29;20055;-62
2022/08/27 02:51:29;;;;;;;7.88;2.10;;;16.10;99.90;;;;;;4935693;29;20040;-62
2022/08/27 02:53:55;;;;;;;5.28;2.00;;;16.10;99.90;;;;;;4933563;29;20496;-62
2022/08/27 02:56:20;;;;;;;7.93;2.25;;;16.10;99.90;;;;;;4935510;29;20070;-62
2022/08/27 02:58:46;;;;;;;4.70;1.90;;;16.10;99.90;;;;;;4917929;29;20060;-61
2022/08/27 03:01:12;;;;;;;5.13;2.05;;;16.00;99.90;;;;;;4935306;29;20054;-62
2022/08/27 03:03:37;;;;;;;8.43;2.30;;;16.00;99.90;;;;;;4934972;29;20050;-62
2022/08/27 03:06:03;;;;;;;7.57;2.53;;;16.00;99.90;;;;;;4934187;29;20130;-61
2022/08/27 03:08:29;;;;;;;4.57;1.98;;;16.00;99.90;;;;;;4933839;29;20047;-61
2022/08/27 03:10:55;;;;;;;7.10;2.50;;;16.00;99.90;;;;;;4934789;29;20044;-61
2022/08/27 03:13:22;;;;;;;5.47;2.47;;;15.90;99.90;;;;;;4935259;29;20051;-62
2022/08/27 03:15:47;;;;;;;6.60;2.70;;;15.90;99.90;;;;;;4934804;29;20110;-62
2022/08/27 03:18:20;;;;;;;5.47;2.55;;;15.80;99.90;;;;;;4949818;29;20406;-62
2022/08/27 03:20:54;;;;;;;7.30;2.30;;;15.80;99.90;;;;;;4934978;29;20051;-62
2022/08/27 03:23:23;;;;;;;4.47;2.22;;;15.80;99.90;;;;;;4935191;29;20473;-62
2022/08/27 03:25:52;;;;;;;7.45;2.55;;;15.80;99.90;;;;;;4933136;29;20198;-62
2022/08/27 03:28:24;;;;;;;6.82;2.53;;;15.80;99.90;;;;;;4934894;29;20374;-61
2022/08/27 03:30:59;;;;;;;7.20;2.28;;;15.80;99.90;;;;;;4934477;29;20083;-62
2022/08/27 03:33:25;;;;;;;5.90;2.15;;;15.80;99.90;;;;;;4934550;29;20051;-62
2022/08/27 03:35:51;;;;;;;10.00;2.88;;;15.80;99.90;;;;;;4933386;29;20355;-61
2022/08/27 03:38:17;;;;;;;5.30;2.10;;;15.80;99.90;;;;;;4933654;29;20398;-62
2022/08/27 03:40:43;;;;;;;5.88;2.28;;;15.80;99.90;;;;;;4933166;29;20054;-62
2022/08/27 03:43:11;;;;;;;5.60;2.03;;;15.80;99.90;;;;;;4934161;29;20043;-62
2022/08/27 03:45:37;;;;;;;5.35;2.45;;;15.80;99.90;;;;;;4934553;29;20530;-63
2022/08/27 03:48:04;;;;;;;7.43;2.65;;;15.70;99.90;;;;;;4933124;29;20131;-62
2022/08/27 03:50:31;;;;;;;5.32;2.13;;;15.70;99.90;;;;;;4934510;29;20047;-62
2022/08/27 03:52:57;;;;;;;13.57;3.35;;;15.70;99.90;;;;;;4933930;29;20055;-62
2022/08/27 03:55:23;;;;;;;5.55;2.22;;;15.70;99.90;;;;;;4934485;29;20047;-61
2022/08/27 03:57:49;;;;;;;6.93;2.50;;;15.70;99.90;;;;;;4934034;29;20407;-64
2022/08/27 04:00:15;;;;;;;8.10;2.33;;;15.70;99.90;;;;;;4933908;29;20067;-62
2022/08/27 04:02:42;;;;;;;6.88;2.38;;;15.70;99.90;;;;;;4932415;29;20154;-62
2022/08/27 04:05:10;;;;;;;6.38;2.30;;;15.60;99.90;;;;;;4933840;29;20313;-61
2022/08/27 04:07:37;;;;;;;8.00;2.60;;;15.70;99.90;;;;;;4933877;29;20048;-62
2022/08/27 04:10:04;;;;;;;6.95;2.40;;;15.60;99.90;;;;;;4932854;29;20044;-62
2022/08/27 04:12:30;;;;;;;5.60;2.05;;;15.60;99.90;;;;;;4932935;29;20059;-62
2022/08/27 04:14:56;;;;;;;5.57;2.10;;;15.50;99.90;;;;;;4933827;29;20107;-62
2022/08/27 04:17:21;;;;;;;7.15;2.20;;;15.50;99.90;;;;;;4932189;29;20044;-62
2022/08/27 04:19:49;;;;;;;6.05;2.10;;;15.50;99.90;;;;;;4932901;29;20044;-62
2022/08/27 04:22:15;;;;;;;6.63;2.65;;;15.50;99.90;;;;;;4933901;29;20055;-62
2022/08/27 04:24:41;;;;;;;6.10;1.95;;;15.40;99.90;;;;;;4932634;29;20519;-61
2022/08/27 04:27:07;;;;;;;7.97;2.58;;;15.40;99.90;;;;;;4917025;29;20047;-62
2022/08/27 04:29:33;;;;;;;9.30;2.42;;;15.40;99.90;;;;;;4932511;29;20042;-62
2022/08/27 04:31:59;;;;;;;8.88;2.55;;;15.30;99.90;;;;;;4933278;29;20058;-61
2022/08/27 04:34:25;;;;;;;7.80;2.58;;;15.30;99.90;;;;;;4933078;29;20526;-62
2022/08/27 04:36:55;;;;;;;7.07;2.38;;;15.30;99.90;;;;;;4931799;29;20098;-62
2022/08/27 04:39:21;;;;;;;6.03;2.42;;;15.30;99.90;;;;;;4933351;29;20056;-62
2022/08/27 04:41:51;;;;;;;7.90;2.03;;;15.30;99.90;;;;;;4932253;29;20150;-61
2022/08/27 04:44:17;;;;;;;9.38;2.45;;;15.30;99.90;;;;;;4933184;29;20054;-61
2022/08/27 04:46:43;;;;;;;6.55;2.63;;;15.30;99.90;;;;;;4933826;29;20044;-61
2022/08/27 04:49:11;;;;;;;8.05;2.42;;;15.40;99.90;;;;;;4933082;29;20055;-62
2022/08/27 04:51:38;;;;;;;5.95;2.17;;;15.40;99.90;;;;;;4917149;29;20054;-61
2022/08/27 04:54:05;;;;;;;6.60;2.38;;;15.50;99.90;;;;;;4933356;29;20047;-61
2022/08/27 04:56:32;;;;;;;7.50;2.33;;;15.50;99.90;;;;;;4932860;29;20406;-63
2022/08/27 04:58:59;;;;;;;6.35;2.22;;;15.60;99.90;;;;;;4933310;29;20069;-61
2022/08/27 05:01:28;;;;;;;7.05;1.95;;;15.60;99.90;;;;;;4916847;29;20465;-61
2022/08/27 05:03:54;;;;;;;4.75;1.80;;;15.70;99.90;;;;;;4932710;29;20056;-62
2022/08/27 05:06:21;;;;;;;3.40;1.77;;;15.80;99.90;;;;;;4931611;29;20136;-62
2022/08/27 05:08:48;;;;;;;4.60;1.98;;;15.80;99.90;;;;;;4932489;29;20056;-61
2022/08/27 05:11:15;;;;;;;7.85;2.33;;;15.80;99.90;;;;;;4933252;29;20054;-61
2022/08/27 05:13:42;;;;;;;5.38;1.80;;;15.90;99.90;;;;;;4932278;29;20059;-61
2022/08/27 05:16:11;;;;;;;9.27;2.72;;;15.90;99.90;;;;;;4933474;29;20044;-61
2022/08/27 05:18:37;;;;;;;5.57;2.08;;;15.90;99.90;;;;;;4933325;29;20166;-61
2022/08/27 05:21:04;;;;;;;5.80;2.00;;;16.00;99.90;;;;;;4933040;29;20051;-62
2022/08/27 05:23:31;;;;;;;6.25;2.22;;;16.00;99.90;;;;;;4916313;29;20058;-61
2022/08/27 05:25:57;;;;;;;4.57;2.00;;;16.10;99.90;;;;;;4932847;29;20520;-62
2022/08/27 05:28:25;;;;;;;8.88;2.30;;;16.10;99.90;;;;;;4932689;29;20103;-61
2022/08/27 05:30:53;;;;;;;6.20;2.53;;;16.20;99.90;;;;;;4936789;29;20087;-62
2022/08/27 05:33:23;;;;;;;7.28;2.28;;;16.20;99.90;;;;;;4936233;29;20074;-62
2022/08/27 05:35:54;;;;;;;10.50;2.20;;;16.30;99.90;;;;;;4936480;29;20047;-62
2022/08/27 05:38:20;;;;;;;6.10;2.28;;;16.30;99.90;;;;;;4936508;29;20047;-61
2022/08/27 05:40:47;;;;;;;7.47;2.25;;;16.40;99.90;;;;;;4936586;29;20090;-62
2022/08/27 05:43:14;;;;;;;8.02;2.30;;;16.60;99.90;;;;;;4935166;29;20138;-62
2022/08/27 05:45:46;;;;;;;5.65;2.20;;;17.40;99.90;;;;;;4935587;29;20047;-62
2022/08/27 05:48:15;;;;;;;5.82;2.00;;;18.20;99.90;;;;;;4936219;29;20454;-62
2022/08/27 05:50:42;;;;;;;5.40;2.30;;;18.50;99.90;;;;;;4936250;29;20434;-62
2022/08/27 05:53:10;;;;;;;6.63;2.38;;;18.50;99.90;;;;;;4919248;29;20103;-62
2022/08/27 05:55:38;;;;;;;4.43;2.00;;;18.30;99.90;;;;;;4935537;29;20109;-62
2022/08/27 05:58:05;;;;;;;6.72;2.10;;;18.20;99.90;;;;;;4935512;29;20046;-65
2022/08/27 06:03:15;;;;;;;6.32;2.25;;;17.90;99.90;;;;;;4935217;29;20056;-62
2022/08/27 06:05:40;;;;;;;4.63;2.00;;;17.70;99.90;;;;;;4935064;29;20405;-62
2022/08/27 06:08:06;;;;;;;6.07;2.22;;;17.70;99.90;;;;;;4935993;29;20134;-62
2022/08/27 06:10:32;;;;;;;4.97;2.03;;;17.60;99.90;;;;;;4950857;29;20055;-62
2022/08/27 06:12:58;;;;;;;5.35;2.10;;;17.50;99.90;;;;;;4935324;29;20047;-62
2022/08/27 06:15:24;;;;;;;5.18;2.00;;;17.50;99.90;;;;;;4935908;29;20404;-62
2022/08/27 06:17:50;;;;;;;8.38;2.22;;;17.50;99.90;;;;;;4934809;29;20204;-62
2022/08/27 06:20:16;;;;;;;7.68;2.45;;;17.50;99.90;;;;;;4918861;29;20055;-62
2022/08/27 06:22:43;;;;;;;7.55;2.20;;;17.60;99.90;;;;;;4936440;29;20051;-62
2022/08/27 06:25:09;;;;;;;9.45;2.30;;;17.60;99.90;;;;;;4936323;29;20052;-62
2022/08/27 06:27:35;;;;;;;6.35;2.78;;;17.70;99.90;;;;;;4936562;29;20383;-62
2022/08/27 06:30:01;;;;;;;7.20;2.30;;;17.70;99.90;;;;;;4935425;29;20086;-62
2022/08/27 06:32:26;;;;;;;8.45;2.28;;;17.70;99.90;;;;;;4950898;29;20054;-61
2022/08/27 06:34:52;;;;;;;7.45;2.35;;;17.80;99.90;;;;;;4935386;29;20142;-62
2022/08/27 06:37:18;;;;;;;8.77;2.53;;;17.80;99.90;;;;;;4936158;29;20048;-62
2022/08/27 06:39:43;;;;;;;7.75;2.50;;;17.90;99.90;;;;;;4918336;29;20044;-62
2022/08/27 06:42:11;;;;;;;7.40;2.55;;;17.90;99.90;;;;;;4934657;29;20050;-62
2022/08/27 06:44:37;;;;;;;7.43;2.40;;;18.00;99.90;;;;;;4935211;29;20083;-62
2022/08/27 06:47:02;;;;;;;7.13;2.10;;;18.20;99.90;;;;;;4936102;29;20075;-63
2022/08/27 06:49:29;;;;;;;12.68;2.78;;;18.40;99.90;;;;;;4934708;29;20201;-63
2022/08/27 06:51:54;;;;;;;9.15;2.10;;;18.70;99.90;;;;;;4936026;29;20135;-63
2022/08/27 06:54:20;;;;;;;5.70;1.90;;;19.00;99.90;;;;;;4935341;29;20528;-65
2022/08/27 06:56:48;;;;;;;8.27;2.15;;;19.30;99.90;;;;;;4934773;29;20056;-62
2022/08/27 06:59:16;;;;;;;5.60;1.92;;;19.60;99.90;;;;;;4935237;29;20055;-62
2022/08/27 07:01:45;;;;;;;6.20;2.05;;;19.80;99.90;;;;;;4935761;29;20060;-66
2022/08/27 07:04:15;;;;;;;10.55;2.10;;;19.90;99.90;;;;;;4935410;29;20151;-65
2022/08/27 07:06:41;;;;;;;7.47;2.05;;;19.90;99.90;;;;;;4934843;29;20051;-64
2022/08/27 07:09:08;;;;;;;7.07;2.13;;;19.80;99.90;;;;;;4935739;29;20114;-62
2022/08/27 07:11:34;;;;;;;8.60;1.95;;;19.80;99.90;;;;;;4935260;29;20055;-63
2022/08/27 07:14:00;;;;;;;9.32;2.03;;;19.90;99.90;;;;;;4935455;29;20132;-63
2022/08/27 07:16:28;;;;;;;9.35;2.42;;;19.90;99.90;;;;;;4933922;29;20064;-62
2022/08/27 07:18:56;;;;;;;9.75;2.30;;;19.90;99.90;;;;;;4935602;29;20040;-62
2022/08/27 07:21:23;;;;;;;6.30;2.13;;;19.70;99.90;;;;;;4935303;29;20091;-63
2022/08/27 07:23:50;;;;;;;7.97;1.95;;;19.70;99.90;;;;;;4935437;29;20188;-62
2022/08/27 07:26:17;;;;;;;7.00;1.55;;;19.60;99.90;;;;;;4934987;29;20052;-62
2022/08/27 07:28:43;;;;;;;5.05;1.75;;;19.60;99.90;;;;;;4935399;29;20063;-62
2022/08/27 07:31:12;;;;;;;6.75;1.75;;;19.60;99.90;;;;;;4935136;29;20083;-61
2022/08/27 07:33:39;;;;;;;7.03;1.92;;;19.50;99.90;;;;;;4934040;29;20047;-61
2022/08/27 07:36:06;;;;;;;8.90;2.38;;;19.40;99.90;;;;;;4934946;29;20055;-61
2022/08/27 07:38:33;;;;;;;5.88;2.00;;;19.40;99.90;;;;;;4934743;29;20087;-60
2022/08/27 07:40:58;;;;;;;6.93;1.83;;;19.50;99.90;;;;;;4933812;29;20079;-61
2022/08/27 07:46:08;;;;;;;6.85;2.13;;;19.40;99.90;;;;;;4933052;29;20058;-62
2022/08/27 07:48:34;;;;;;;7.95;2.00;;;19.40;99.90;;;;;;4934499;29;20052;-61
2022/08/27 07:51:04;;;;;;;10.02;1.88;;;19.40;99.90;;;;;;4934529;29;20083;-61
2022/08/27 07:53:31;;;;;;;10.85;2.20;;;19.40;99.90;;;;;;4933529;29;20063;-62
2022/08/27 07:56:05;;;;;;;6.40;1.90;;;19.40;99.90;;;;;;4934470;29;20510;-61
2022/08/27 07:58:31;;;;;;;6.38;2.00;;;19.50;99.90;;;;;;4934326;29;20043;-62
2022/08/27 08:00:57;;;;;;;7.60;2.00;;;19.50;99.90;;;;;;4934517;29;20074;-62
2022/08/27 08:03:23;;;;;;;10.38;1.95;;;19.50;99.90;;;;;;4933467;29;20051;-61
2022/08/27 08:05:51;;;;;;;8.98;2.08;;;19.60;99.90;;;;;;4934519;29;20063;-63
2022/08/27 08:08:18;;;;;;;12.02;2.20;;;19.60;99.90;;;;;;4933438;29;20413;-64
2022/08/27 08:10:44;;;;;;;5.18;1.77;;;19.60;99.90;;;;;;4933306;29;20052;-61
2022/08/27 08:13:11;;;;;;;9.63;2.05;;;19.60;99.90;;;;;;4933435;29;20055;-61
2022/08/27 08:15:36;;;;;;;7.72;1.95;;;19.50;99.90;;;;;;4934283;29;20051;-63
2022/08/27 08:18:02;;;;;;;4.22;1.60;;;19.50;99.90;;;;;;4934411;29;20450;-63
2022/08/27 08:20:29;;;;;;;5.32;1.67;;;19.50;99.90;;;;;;4934216;29;20082;-62
2022/08/27 08:22:55;;;;;;;5.95;1.70;;;19.50;99.90;;;;;;4934856;29;20050;-63
2022/08/27 08:25:20;;;;;;;6.45;1.90;;;19.50;99.90;;;;;;4917522;29;20056;-67
2022/08/27 08:27:47;;;;;;;6.55;1.55;;;19.50;99.90;;;;;;4917585;29;20040;-62
2022/08/27 08:30:13;;;;;;;7.43;1.88;;;19.60;99.90;;;;;;4933585;29;20047;-64
2022/08/27 08:32:39;;;;;;;4.25;1.50;;;19.60;99.90;;;;;;4934320;29;20413;-62
2022/08/27 08:35:06;;;;;;;6.88;2.00;;;19.70;99.90;;;;;;4934642;29;20043;-62
2022/08/27 08:37:32;;;;;;;7.28;1.90;;;19.80;99.90;;;;;;4934391;29;20059;-64
2022/08/27 08:39:58;;;;;;;7.72;1.60;;;19.70;99.90;;;;;;4933128;29;20134;-62
2022/08/27 08:42:40;;;;;;;8.88;2.25;;;19.70;99.90;;;;;;4932896;29;20052;-64
2022/08/27 08:45:06;;;;;;;6.07;1.67;;;19.80;99.90;;;;;;4933472;29;20067;-63
2022/08/27 08:47:47;;;;;;;8.10;2.20;;;20.20;99.90;;;;;;4933054;29;20044;-60
2022/08/27 08:50:24;;;;;;;9.48;1.88;;;20.80;99.90;;;;;;4934466;29;20051;-63
2022/08/27 08:53:10;;;;;;;6.40;2.00;;;21.20;99.90;;;;;;4932971;29;20048;-63
2022/08/27 08:55:55;;;;;;;6.50;2.00;;;21.40;99.90;;;;;;4933949;29;20056;-64
2022/08/27 08:58:23;;;;;;;6.60;1.70;;;21.40;99.90;;;;;;4933882;29;20162;-63
2022/08/27 09:00:57;;;;;;;5.10;1.60;;;21.90;99.90;;;;;;4934035;29;20055;-63
2022/08/27 09:03:24;;;;;;;10.85;2.17;;;22.20;99.40;;;;;;4935320;29;20106;-64
2022/08/27 09:05:59;;;;;;;7.97;2.03;;;21.90;99.60;;;;;;4936778;29;20048;-63
2022/08/27 09:08:35;;;;;;;7.28;1.88;;;21.70;99.90;;;;;;4937880;29;20079;-63
2022/08/27 09:11:03;;;;;;;6.35;1.92;;;21.50;99.90;;;;;;4937848;29;20051;-62
2022/08/27 09:13:54;;;;;;;5.45;2.13;;;21.40;99.90;;;;;;4937689;29;20048;-63
2022/08/27 09:16:20;;;;;;;10.65;1.90;;;21.30;99.90;;;;;;4937980;29;20386;-63
2022/08/27 09:18:46;;;;;;;7.57;2.30;;;21.10;99.90;;;;;;4937379;29;20039;-63
2022/08/27 09:21:34;;;;;;;8.02;2.25;;;21.10;99.90;;;;;;4937860;29;20058;-63
2022/08/27 09:24:21;;;;;;;8.55;1.60;;;20.90;99.90;;;;;;4952531;29;20202;-62
2022/08/27 09:26:47;;;;;;;8.73;1.92;;;20.80;99.90;;;;;;4937342;29;20056;-61
2022/08/27 09:29:18;;;;;;;10.27;1.75;;;20.90;99.90;;;;;;4936621;29;20052;-63
2022/08/27 09:32:02;;;;;;;8.57;1.90;;;21.00;99.90;;;;;;4937304;29;20132;-61
2022/08/27 09:34:38;;;;;;;7.10;1.83;;;21.10;99.90;;;;;;4937682;29;20059;-61
2022/08/27 09:37:09;;;;;;;7.80;1.83;;;21.10;99.90;;;;;;4937480;29;20047;-61
2022/08/27 09:39:49;;;;;;;9.40;2.15;;;21.00;99.90;;;;;;4935767;29;20460;-62
2022/08/27 09:42:45;;;;;;;6.22;2.03;;;21.00;99.90;;;;;;4935874;29;20098;-63
2022/08/27 09:45:18;;;;;;;6.38;2.00;;;21.00;99.90;;;;;;4935674;29;20055;-62
2022/08/27 09:47:49;;;;;;;8.15;2.38;;;21.00;99.90;;;;;;4936844;29;20389;-62
2022/08/27 09:50:22;;;;;;;6.57;1.75;;;20.90;99.90;;;;;;4935697;29;20462;-62
2022/08/27 09:52:57;;;;;;;6.45;1.73;;;20.80;99.90;;;;;;4937003;29;20054;-61
2022/08/27 09:55:37;;;;;;;6.28;1.80;;;20.70;99.90;;;;;;4920370;29;20056;-60
2022/08/27 09:58:05;;;;;;;6.82;2.10;;;20.60;99.90;;;;;;4937201;29;20146;-60
2022/08/27 10:00:37;;;;;;;7.25;1.98;;;20.60;99.90;;;;;;4936692;29;20433;-60
2022/08/27 10:03:05;;;;;;;5.13;1.50;;;20.60;99.90;;;;;;4937182;29;20087;-60
2022/08/27 10:05:41;;;;;;;7.05;1.98;;;20.70;99.90;;;;;;4935703;29;20111;-61
2022/08/27 10:08:16;;;;;;;7.80;1.83;;;20.70;99.90;;;;;;4936184;29;20056;-60
2022/08/27 10:10:52;;;;;;;9.65;2.40;;;20.70;99.90;;;;;;4936614;29;20417;-60
2022/08/27 10:13:24;;;;;;;8.50;1.73;;;20.70;99.90;;;;;;4937014;29;20083;-60
2022/08/27 10:16:03;;;;;;;6.30;1.67;;;20.70;99.70;;;;;;4936764;29;20374;-61
2022/08/27 10:19:16;;;;;;;8.15;1.85;;;20.70;99.00;;;;;;4936900;29;20184;-60
2022/08/27 10:21:57;;;;;;;6.82;1.63;;;20.80;99.50;;;;;;4933757;29;20094;-60
2022/08/27 10:24:40;;;;;;;6.65;1.55;;;20.90;99.90;;;;;;4934050;29;20087;-60
2022/08/27 10:27:15;;;;;;;4.80;1.55;;;21.20;99.10;;;;;;4913583;29;20103;-60
2022/08/27 10:29:59;;;;;;;5.18;1.52;;;21.50;99.10;;;;;;4935271;29;20059;-60
2022/08/27 10:32:48;;;;;;;8.38;1.63;;;21.70;98.40;;;;;;4936588;29;20048;-60
2022/08/27 10:35:20;;;;;;;6.93;1.80;;;22.00;98.10;;;;;;4936417;29;20051;-58
2022/08/27 10:38:00;;;;;;;5.47;1.60;;;22.10;97.40;;;;;;4935806;29;20051;-58
2022/08/27 10:40:35;;;;;;;5.15;1.67;;;22.20;96.90;;;;;;4936522;29;20052;-60
2022/08/27 10:43:22;;;;;;;7.95;2.13;;;22.20;97.00;;;;;;4935974;29;20057;-60
2022/08/27 10:46:14;;;;;;;7.00;1.63;;;22.10;96.80;;;;;;4935201;29;20244;-59
2022/08/27 10:48:48;;;;;;;8.65;2.20;;;22.20;97.50;;;;;;4936118;29;20051;-59
2022/08/27 10:51:24;;;;;;;5.10;1.58;;;22.20;97.60;;;;;;4936301;29;20052;-59
2022/08/27 10:53:57;;;;;;;6.22;1.77;;;22.10;97.70;;;;;;4934758;29;20070;-59
2022/08/27 10:56:54;;;;;;;6.95;1.90;;;22.00;98.00;;;;;;4936074;29;20079;-59
2022/08/27 10:59:43;;;;;;;7.85;1.88;;;21.90;98.20;;;;;;4934802;29;20063;-58
2022/08/27 11:02:41;;;;;;;8.23;1.90;;;21.90;98.20;;;;;;4936285;29;20056;-59
2022/08/27 11:05:40;;;;;;;5.20;1.35;;;22.10;97.90;;;;;;4934890;29;20142;-60
2022/08/27 11:08:12;;;;;;;6.32;1.60;;;22.40;97.20;;;;;;4934962;29;20078;-60
2022/08/27 11:10:46;;;;;;;5.88;1.65;;;22.50;97.20;;;;;;4935944;29;20052;-59
2022/08/27 11:13:37;;;;;;;11.40;1.80;;;22.40;96.40;;;;;;4934866;29;20051;-60
2022/08/27 11:16:15;;;;;;;8.27;1.60;;;22.40;96.60;;;;;;4935636;29;20401;-60
2022/08/27 11:18:47;;;;;;;5.20;1.52;;;22.40;96.50;;;;;;4935913;29;20497;-59
2022/08/27 11:21:24;;;;;;;5.32;1.40;;;22.40;96.70;;;;;;4935734;29;20062;-61
2022/08/27 11:23:58;;;;;;;5.63;1.58;;;22.40;96.30;;;;;;4935823;29;20504;-59
2022/08/27 11:26:24;;;;;;;7.05;1.42;;;22.40;96.00;;;;;;4935318;29;20043;-61
2022/08/27 11:29:18;;;;;;;6.18;1.30;;;22.40;95.60;;;;;;4918356;29;20047;-59
2022/08/27 11:31:57;;;;;;;10.30;1.83;;;22.50;95.90;;;;;;4935706;29;20086;-61
2022/08/27 11:34:45;;;;;;;4.50;1.42;;;22.50;96.00;;;;;;4935324;29;20052;-61
2022/08/27 11:37:47;;;;;;;5.28;1.45;;;22.50;96.20;;;;;;4935459;29;20142;-59
2022/08/27 11:40:51;;;;;;;8.00;1.73;;;22.50;96.40;;;;;;4934075;29;20043;-60
2022/08/27 11:43:22;;;;;;;5.80;1.40;;;22.60;96.80;;;;;;4935240;29;20043;-59
2022/08/27 11:45:57;;;;;;;7.13;1.65;;;22.60;96.90;;;;;;4935101;29;20059;-59
2022/08/27 11:48:34;;;;;;;4.57;1.23;;;22.50;96.60;;;;;;4935401;29;20422;-60
2022/08/27 11:51:13;;;;;;;3.90;1.50;;;22.50;96.50;;;;;;4933958;29;20047;-61
2022/08/27 11:53:42;;;;;;;4.82;1.67;;;22.60;96.50;;;;;;4935327;29;20087;-59
2022/08/27 11:56:36;;;;;;;6.10;1.50;;;22.70;96.50;;;;;;4934678;29;20083;-60
2022/08/27 11:59:20;;;;;;;7.07;1.52;;;22.80;96.40;;;;;;4934800;29;20462;-59
2022/08/27 12:01:47;;;;;;;6.90;1.80;;;22.80;95.70;;;;;;4934815;29;20060;-59
2022/08/27 12:04:35;;;;;;;4.88;1.08;;;22.60;95.20;;;;;;4933673;29;20056;-59
2022/08/27 12:07:28;;;;;;;8.15;1.88;;;22.40;95.40;;;;;;4934543;29;20059;-59
2022/08/27 12:10:19;;;;;;;4.93;1.65;;;22.50;95.90;;;;;;4934586;29;20107;-61
2022/08/27 12:13:07;;;;;;;5.18;1.60;;;22.60;95.50;;;;;;4935003;29;20047;-59
2022/08/27 12:15:47;;;;;;;7.80;1.50;;;22.50;95.10;;;;;;4933096;29;20528;-59
2022/08/27 12:18:32;;;;;;;7.80;1.60;;;22.40;95.70;;;;;;4933805;29;20056;-59
2022/08/27 12:21:14;;;;;;;3.97;1.40;;;22.40;96.00;;;;;;4933813;29;20056;-59
2022/08/27 12:23:48;;;;;;;7.60;1.60;;;22.50;95.90;;;;;;4933517;29;20052;-61
2022/08/27 12:26:32;;;;;;;3.75;1.13;;;22.60;95.80;;;;;;4934519;29;20087;-60
2022/08/27 12:29:37;;;;;;;9.55;1.63;;;22.50;95.30;;;;;;4948937;29;20051;-60
2022/08/27 12:32:24;;;;;;;3.95;1.20;;;22.50;95.40;;;;;;4932945;29;20106;-60
2022/08/27 12:35:01;;;;;;;8.15;1.73;;;22.50;95.60;;;;;;4934503;29;20039;-60
2022/08/27 12:37:33;;;;;;;4.05;1.33;;;22.60;95.00;;;;;;4933840;29;20099;-59
2022/08/27 12:40:06;;;;;;;6.80;1.60;;;22.60;95.20;;;;;;4933853;29;20132;-59
2022/08/27 12:42:31;;;;;;;5.50;1.33;;;22.40;95.50;;;;;;4934343;29;20051;-59
2022/08/27 12:44:58;;;;;;;6.20;1.40;;;22.50;95.70;;;;;;4933880;29;20533;-59
2022/08/27 12:47:25;;;;;;;6.72;1.52;;;22.60;95.50;;;;;;4932540;29;20412;-59
2022/08/27 12:49:57;;;;;;;4.85;1.73;;;22.70;94.40;;;;;;4934229;29;20048;-59
2022/08/27 12:52:47;;;;;;;3.97;1.15;;;22.80;94.40;;;;;;4934039;29;20043;-60
2022/08/27 12:55:22;;;;;;;6.53;1.50;;;22.80;95.00;;;;;;4933647;29;20201;-59
2022/08/27 12:58:12;;;;;;;5.65;1.45;;;22.70;95.70;;;;;;4934389;29;20039;-60
2022/08/27 13:01:00;;;;;;;5.95;1.60;;;22.60;96.00;;;;;;4933829;29;20056;-59
2022/08/27 13:03:33;;;;;;;5.25;1.60;;;22.50;96.30;;;;;;4934326;29;20056;-59
2022/08/27 13:06:00;;;;;;;5.60;1.45;;;22.30;96.40;;;;;;4934128;29;20044;-59
2022/08/27 13:08:29;;;;;;;10.32;2.22;;;22.30;96.30;;;;;;4934288;29;20051;-59
2022/08/27 13:10:56;;;;;;;8.43;1.63;;;22.20;96.00;;;;;;4933019;29;20044;-61